Time;durP1;ratioP1;P1;durP2;ratioP2;P2;SDS_P1;SDS_P2;PMS_P1;PMS_P2;Temp;Humidity;BMP_temperature;BMP_pressure;BME280_temperature;BME280_humidity;BME280_pressure;Samples;Min_cycle;Max_cycle;Signal;HPM_P1;HPM_P2
2024/01/23 00:00:20;;;;;;;12.00;7.47;;;;;;;;;;6237721;28;20390;-66
2024/01/23 00:03:40;;;;;;;11.73;7.00;;;;;;;;;;6240827;28;20554;-64
2024/01/23 00:06:41;;;;;;;13.30;7.40;;;;;;;;;;6240897;28;20105;-71
2024/01/23 00:09:42;;;;;;;12.18;7.57;;;;;;;;;;6240110;28;20045;-69
2024/01/23 00:12:43;;;;;;;13.18;7.93;;;;;;;;;;6239980;28;20076;-68
2024/01/23 00:15:43;;;;;;;14.70;8.07;;;;;;;;;;6239230;28;20093;-66
2024/01/23 00:18:44;;;;;;;13.55;7.40;;;;;;;;;;6239335;28;20053;-69
2024/01/23 00:21:44;;;;;;;15.20;8.45;;;;;;;;;;6239521;28;20049;-67
2024/01/23 00:24:45;;;;;;;13.02;7.35;;;;;;;;;;6240606;28;20742;-66
2024/01/23 00:27:46;;;;;;;11.98;7.05;;;;;;;;;;6241939;28;20802;-67
2024/01/23 00:30:47;;;;;;;15.32;8.23;;;;;;;;;;6237894;28;20053;-67
2024/01/23 00:33:48;;;;;;;15.60;9.32;;;;;;;;;;6239829;28;21160;-66
2024/01/23 00:36:48;;;;;;;15.48;9.40;;;;;;;;;;6241965;28;20505;-66
2024/01/23 00:39:50;;;;;;;14.18;8.48;;;;;;;;;;6239403;28;20469;-67
2024/01/23 00:42:51;;;;;;;;;;;;;;;;;;6239870;28;20502;-67
2024/01/23 00:45:52;;;;;;;13.98;7.53;;;;;;;;;;6236740;28;19931;-66
2024/01/23 00:48:53;;;;;;;13.20;8.35;;;;;;;;;;6239872;28;20049;-67
2024/01/23 00:51:53;;;;;;;15.18;7.30;;;;;;;;;;6238042;28;20057;-66
2024/01/23 00:54:58;;;;;;;14.20;8.35;;;;;;;;;;6240296;28;20084;-67
2024/01/23 00:57:59;;;;;;;13.45;7.70;;;;;;;;;;6239846;28;20091;-66
2024/01/23 01:01:00;;;;;;;14.93;8.43;;;;;;;;;;6238693;28;20045;-67
2024/01/23 01:04:01;;;;;;;13.38;7.05;;;;;;;;;;6239954;28;20057;-66
2024/01/23 01:07:02;;;;;;;13.02;7.32;;;;;;;;;;6238272;28;20057;-67
2024/01/23 01:10:04;;;;;;;13.90;8.32;;;;;;;;;;6238502;28;20116;-67
2024/01/23 01:13:05;;;;;;;11.13;7.10;;;;;;;;;;6238562;28;20059;-67
2024/01/23 01:16:05;;;;;;;14.98;7.97;;;;;;;;;;6236560;28;20049;-66
2024/01/23 01:19:06;;;;;;;13.35;7.55;;;;;;;;;;6238113;28;20049;-67
2024/01/23 01:22:07;;;;;;;12.98;7.78;;;;;;;;;;6236501;28;20108;-68
2024/01/23 01:25:11;;;;;;;12.90;7.45;;;;;;;;;;6226933;28;20053;-67
2024/01/23 01:28:14;;;;;;;12.32;6.85;;;;;;;;;;6239123;28;20176;-68
2024/01/23 01:31:15;;;;;;;12.43;7.07;;;;;;;;;;6237643;28;20572;-69
2024/01/23 01:34:15;;;;;;;12.80;7.32;;;;;;;;;;6239370;28;20425;-67
2024/01/23 01:37:17;;;;;;;12.15;6.68;;;;;;;;;;6239634;28;20045;-67
2024/01/23 01:40:17;;;;;;;12.20;7.25;;;;;;;;;;6237371;28;20188;-67
2024/01/23 01:43:30;;;;;;;13.27;7.70;;;;;;;;;;6238234;28;20512;-67
2024/01/23 01:46:31;;;;;;;;;;;;;;;;;;6237837;28;20060;-66
2024/01/23 01:49:32;;;;;;;11.93;7.40;;;;;;;;;;6238079;28;21232;-66
2024/01/23 01:52:33;;;;;;;12.13;6.97;;;;;;;;;;6237653;28;20050;-66
2024/01/23 01:55:33;;;;;;;12.57;6.90;;;;;;;;;;6239041;28;20462;-66
2024/01/23 01:58:35;;;;;;;12.63;6.90;;;;;;;;;;6238188;28;20099;-66
2024/01/23 02:01:36;;;;;;;;;;;;;;;;;;6236767;28;20069;-67
2024/01/23 02:04:37;;;;;;;11.90;6.20;;;;;;;;;;6240790;28;20268;-67
2024/01/23 02:07:38;;;;;;;11.75;6.68;;;;;;;;;;6243914;28;20049;-67
2024/01/23 02:10:39;;;;;;;12.10;7.10;;;;;;;;;;6243071;28;20073;-67
2024/01/23 02:13:41;;;;;;;12.65;7.35;;;;;;;;;;6241673;28;20404;-68
2024/01/23 02:16:41;;;;;;;14.02;7.95;;;;;;;;;;6243085;28;20540;-68
2024/01/23 02:19:42;;;;;;;12.35;6.63;;;;;;;;;;6241539;28;20045;-68
2024/01/23 02:22:43;;;;;;;13.10;7.40;;;;;;;;;;6241816;28;20049;-68
2024/01/23 02:25:44;;;;;;;12.40;7.18;;;;;;;;;;6243412;28;20045;-68
2024/01/23 02:28:45;;;;;;;14.07;7.05;;;;;;;;;;6242041;28;20061;-67
2024/01/23 02:31:45;;;;;;;12.32;7.40;;;;;;;;;;6240681;28;20139;-67
2024/01/23 02:34:46;;;;;;;10.52;6.38;;;;;;;;;;6243082;28;20045;-67
2024/01/23 02:37:47;;;;;;;13.27;7.55;;;;;;;;;;6242276;28;20253;-68
2024/01/23 02:40:47;;;;;;;13.18;7.55;;;;;;;;;;6235092;28;20481;-67
2024/01/23 02:43:48;;;;;;;15.70;8.48;;;;;;;;;;6241862;28;20053;-71
2024/01/23 02:46:49;;;;;;;14.35;7.95;;;;;;;;;;6243105;28;20042;-68
2024/01/23 02:49:51;;;;;;;13.82;7.95;;;;;;;;;;6242920;28;20420;-68
2024/01/23 02:52:51;;;;;;;13.80;8.20;;;;;;;;;;6241232;28;20499;-69
2024/01/23 02:55:52;;;;;;;13.68;8.05;;;;;;;;;;6242909;28;20389;-71
2024/01/23 02:58:52;;;;;;;16.17;9.07;;;;;;;;;;6241752;28;20061;-68
2024/01/23 03:01:53;;;;;;;13.90;8.02;;;;;;;;;;6239497;28;20053;-69
2024/01/23 03:04:54;;;;;;;14.13;8.43;;;;;;;;;;6242335;28;20063;-67
2024/01/23 03:07:55;;;;;;;14.57;9.02;;;;;;;;;;6242448;28;20057;-67
2024/01/23 03:10:55;;;;;;;15.52;9.13;;;;;;;;;;6241573;28;20048;-68
2024/01/23 03:13:56;;;;;;;15.20;8.68;;;;;;;;;;6241859;28;20821;-68
2024/01/23 03:16:57;;;;;;;13.63;8.23;;;;;;;;;;6242696;28;20041;-66
2024/01/23 03:19:58;;;;;;;15.30;8.68;;;;;;;;;;6240429;28;20639;-67
2024/01/23 03:22:59;;;;;;;15.55;9.48;;;;;;;;;;6240619;28;20126;-70
2024/01/23 03:26:01;;;;;;;15.63;8.15;;;;;;;;;;6242114;28;20563;-68
2024/01/23 03:29:03;;;;;;;14.88;8.38;;;;;;;;;;6240114;28;20052;-67
2024/01/23 03:32:04;;;;;;;13.43;8.57;;;;;;;;;;6240439;28;20045;-68
2024/01/23 03:35:05;;;;;;;14.30;8.00;;;;;;;;;;6241655;28;20053;-68
2024/01/23 03:38:06;;;;;;;13.93;9.00;;;;;;;;;;6239292;28;20042;-72
2024/01/23 03:41:07;;;;;;;15.77;9.20;;;;;;;;;;6239348;28;20053;-69
2024/01/23 03:44:10;;;;;;;16.02;9.15;;;;;;;;;;6238403;28;20060;-70
2024/01/23 03:47:10;;;;;;;16.35;9.48;;;;;;;;;;6238899;28;20057;-67
2024/01/23 03:50:11;;;;;;;16.05;8.77;;;;;;;;;;6241669;28;20060;-68
2024/01/23 03:53:12;;;;;;;16.48;10.02;;;;;;;;;;6238807;28;20049;-68
2024/01/23 03:56:13;;;;;;;16.30;9.32;;;;;;;;;;6238042;28;20073;-67
2024/01/23 03:59:14;;;;;;;16.70;9.70;;;;;;;;;;6242136;28;20048;-68
2024/01/23 04:02:15;;;;;;;16.67;9.48;;;;;;;;;;6239898;28;20496;-65
2024/01/23 04:05:15;;;;;;;15.00;9.25;;;;;;;;;;6241334;28;20049;-66
2024/01/23 04:08:16;;;;;;;16.35;8.85;;;;;;;;;;6241061;28;20515;-68
2024/01/23 04:11:17;;;;;;;15.68;9.40;;;;;;;;;;6239126;28;20053;-68
2024/01/23 04:14:17;;;;;;;15.20;9.10;;;;;;;;;;6238585;28;20045;-66
2024/01/23 04:17:18;;;;;;;16.30;9.43;;;;;;;;;;6238905;28;20879;-66
2024/01/23 04:20:19;;;;;;;17.50;9.45;;;;;;;;;;6240430;28;20045;-67
2024/01/23 04:23:19;;;;;;;15.52;9.15;;;;;;;;;;6239337;28;20492;-70
2024/01/23 04:26:20;;;;;;;15.68;9.38;;;;;;;;;;6240509;28;20128;-67
2024/01/23 04:29:21;;;;;;;17.65;9.68;;;;;;;;;;6240241;28;20480;-67
2024/01/23 04:32:22;;;;;;;16.75;9.50;;;;;;;;;;6239554;28;20465;-67
2024/01/23 04:35:23;;;;;;;16.90;9.98;;;;;;;;;;6238077;28;20046;-67
2024/01/23 04:38:24;;;;;;;16.33;9.88;;;;;;;;;;6238521;28;20099;-67
2024/01/23 04:41:24;;;;;;;17.52;10.07;;;;;;;;;;6239041;28;20053;-68
2024/01/23 04:44:28;;;;;;;16.08;9.90;;;;;;;;;;6236398;28;20064;-67
2024/01/23 04:47:29;;;;;;;18.55;10.75;;;;;;;;;;6237864;28;20099;-67
2024/01/23 04:50:29;;;;;;;17.75;10.00;;;;;;;;;;6238343;28;20037;-66
2024/01/23 04:53:32;;;;;;;19.48;11.38;;;;;;;;;;6237196;28;20049;-67
2024/01/23 04:56:34;;;;;;;15.93;9.40;;;;;;;;;;6238825;28;20145;-70
2024/01/23 04:59:35;;;;;;;17.10;10.33;;;;;;;;;;6241855;28;20057;-69
2024/01/23 05:02:36;;;;;;;18.48;10.93;;;;;;;;;;6238185;28;20045;-67
2024/01/23 05:05:36;;;;;;;20.67;10.30;;;;;;;;;;6239929;28;20050;-67
2024/01/23 05:08:37;;;;;;;18.25;10.32;;;;;;;;;;6239776;28;20166;-67
2024/01/23 05:11:38;;;;;;;17.55;10.57;;;;;;;;;;6238481;28;20053;-68
2024/01/23 05:14:38;;;;;;;18.98;10.93;;;;;;;;;;6238807;28;20136;-67
2024/01/23 05:17:39;;;;;;;19.45;10.35;;;;;;;;;;6238346;28;20053;-67
2024/01/23 05:20:40;;;;;;;18.67;10.82;;;;;;;;;;6236162;28;20041;-68
2024/01/23 05:23:42;;;;;;;20.60;10.95;;;;;;;;;;6236818;28;20053;-67
2024/01/23 05:26:43;;;;;;;18.45;10.85;;;;;;;;;;6238261;28;20053;-69
2024/01/23 05:29:43;;;;;;;17.65;10.88;;;;;;;;;;6237795;28;20041;-67
2024/01/23 05:32:45;;;;;;;19.80;11.63;;;;;;;;;;6236507;28;20092;-67
2024/01/23 05:35:45;;;;;;;18.00;10.02;;;;;;;;;;6238903;28;20050;-67
2024/01/23 05:38:46;;;;;;;19.23;10.93;;;;;;;;;;6238111;28;20041;-69
2024/01/23 05:41:46;;;;;;;19.92;10.95;;;;;;;;;;6242997;28;20045;-68
2024/01/23 05:44:47;;;;;;;19.63;10.27;;;;;;;;;;6238244;28;20168;-68
2024/01/23 05:47:48;;;;;;;21.52;11.35;;;;;;;;;;6246232;28;20041;-68
2024/01/23 05:50:49;;;;;;;22.55;11.25;;;;;;;;;;6251070;28;20456;-68
2024/01/23 05:53:49;;;;;;;17.95;10.10;;;;;;;;;;6248965;28;20411;-68
2024/01/23 05:56:50;;;;;;;18.70;11.00;;;;;;;;;;6253644;28;20049;-70
2024/01/23 05:59:51;;;;;;;19.75;11.43;;;;;;;;;;6243950;28;20405;-69
2024/01/23 06:02:53;;;;;;;19.13;10.50;;;;;;;;;;6235261;28;20390;-69
2024/01/23 06:05:53;;;;;;;15.10;9.77;;;;;;;;;;6250869;28;20045;-67
2024/01/23 06:08:54;;;;;;;19.60;10.95;;;;;;;;;;6248127;28;21040;-68
2024/01/23 06:11:55;;;;;;;17.45;10.05;;;;;;;;;;6249439;28;20045;-70
2024/01/23 06:14:56;;;;;;;20.88;11.20;;;;;;;;;;6249677;28;20370;-70
2024/01/23 06:17:56;;;;;;;17.25;10.13;;;;;;;;;;6249553;28;20041;-70
2024/01/23 06:21:00;;;;;;;20.85;10.55;;;;;;;;;;6246380;28;20389;-72
2024/01/23 06:24:00;;;;;;;17.33;10.73;;;;;;;;;;6242523;28;20053;-72
2024/01/23 06:27:03;;;;;;;19.60;10.95;;;;;;;;;;6252243;28;20493;-69
2024/01/23 06:30:04;;;;;;;19.58;10.27;;;;;;;;;;6246231;28;20057;-69
2024/01/23 06:33:05;;;;;;;17.08;10.60;;;;;;;;;;6243061;28;20057;-68
2024/01/23 06:36:06;;;;;;;17.15;10.93;;;;;;;;;;6237468;28;20056;-71
2024/01/23 06:39:08;;;;;;;19.23;10.88;;;;;;;;;;6239616;28;20777;-70
2024/01/23 06:42:09;;;;;;;18.80;10.88;;;;;;;;;;6236924;28;20566;-71
2024/01/23 06:45:10;;;;;;;17.30;9.95;;;;;;;;;;6238145;28;20053;-69
2024/01/23 06:48:10;;;;;;;17.88;10.77;;;;;;;;;;6239302;28;20469;-69
2024/01/23 06:51:11;;;;;;;18.83;10.75;;;;;;;;;;6239599;28;20085;-68
2024/01/23 06:54:12;;;;;;;17.52;9.95;;;;;;;;;;6241910;28;20353;-69
2024/01/23 06:57:12;;;;;;;18.98;11.15;;;;;;;;;;6242566;28;20049;-68
2024/01/23 07:00:13;;;;;;;16.90;10.02;;;;;;;;;;6242791;28;20049;-69
2024/01/23 07:03:15;;;;;;;18.75;10.52;;;;;;;;;;6239110;28;20042;-68
2024/01/23 07:06:16;;;;;;;18.20;10.38;;;;;;;;;;6240785;28;20256;-68
2024/01/23 07:09:16;;;;;;;18.10;10.13;;;;;;;;;;6242497;28;20080;-69
2024/01/23 07:12:17;;;;;;;16.92;10.45;;;;;;;;;;6238228;28;20052;-69
2024/01/23 07:15:18;;;;;;;18.02;9.98;;;;;;;;;;6240262;28;20046;-68
2024/01/23 07:18:18;;;;;;;19.25;10.77;;;;;;;;;;6241028;28;20684;-69
2024/01/23 07:21:19;;;;;;;20.63;10.75;;;;;;;;;;6239722;28;20084;-69
2024/01/23 07:24:20;;;;;;;20.20;10.55;;;;;;;;;;6240656;28;20076;-68
2024/01/23 07:27:21;;;;;;;18.35;10.35;;;;;;;;;;6239880;28;20053;-68
2024/01/23 07:30:21;;;;;;;18.45;10.77;;;;;;;;;;6240448;28;20046;-68
2024/01/23 07:33:22;;;;;;;18.92;10.73;;;;;;;;;;6240212;28;20045;-69
2024/01/23 07:36:23;;;;;;;20.50;10.82;;;;;;;;;;6240965;28;20056;-69
2024/01/23 07:39:24;;;;;;;22.73;10.95;;;;;;;;;;6238128;28;20053;-68
2024/01/23 07:42:24;;;;;;;17.92;9.70;;;;;;;;;;6239628;28;20396;-70
2024/01/23 07:45:25;;;;;;;18.70;10.18;;;;;;;;;;6241621;28;20049;-69
2024/01/23 07:48:27;;;;;;;18.20;10.10;;;;;;;;;;6240826;28;20096;-69
2024/01/23 07:51:28;;;;;;;16.70;9.95;;;;;;;;;;6239282;28;20475;-69
2024/01/23 07:54:32;;;;;;;19.50;11.05;;;;;;;;;;6239698;28;20056;-69
2024/01/23 07:57:33;;;;;;;17.90;10.70;;;;;;;;;;6241146;28;20420;-68
2024/01/23 08:00:33;;;;;;;17.50;9.93;;;;;;;;;;6240800;28;20083;-69
2024/01/23 08:03:34;;;;;;;18.70;10.35;;;;;;;;;;6238771;28;20050;-69
2024/01/23 08:06:35;;;;;;;18.50;10.23;;;;;;;;;;6241134;28;20053;-68
2024/01/23 08:09:36;;;;;;;18.05;9.73;;;;;;;;;;6256242;28;20053;-69
2024/01/23 08:12:36;;;;;;;19.70;10.32;;;;;;;;;;6238663;28;20061;-68
2024/01/23 08:15:39;;;;;;;16.90;9.80;;;;;;;;;;6240649;28;20507;-69
2024/01/23 08:18:40;;;;;;;17.90;9.85;;;;;;;;;;6240234;28;20046;-70
2024/01/23 08:21:41;;;;;;;19.05;10.30;;;;;;;;;;6239737;28;20243;-69
2024/01/23 08:24:41;;;;;;;16.42;9.95;;;;;;;;;;6239812;28;20053;-69
2024/01/23 08:27:42;;;;;;;17.67;10.30;;;;;;;;;;6239071;28;20053;-69
2024/01/23 08:30:43;;;;;;;17.38;9.77;;;;;;;;;;6238961;28;20049;-69
2024/01/23 08:33:44;;;;;;;18.60;9.15;;;;;;;;;;6236609;28;20041;-69
2024/01/23 08:36:45;;;;;;;18.13;9.90;;;;;;;;;;6240102;28;20051;-69
2024/01/23 08:39:45;;;;;;;18.42;11.05;;;;;;;;;;6238670;28;20061;-69
2024/01/23 08:42:46;;;;;;;15.43;8.98;;;;;;;;;;6238592;28;20045;-68
2024/01/23 08:45:48;;;;;;;18.98;10.30;;;;;;;;;;6239268;28;20056;-69
2024/01/23 08:48:49;;;;;;;21.58;12.55;;;;;;;;;;6239247;28;20532;-69
2024/01/23 08:51:50;;;;;;;19.38;11.10;;;;;;;;;;6237336;28;20052;-69
2024/01/23 08:54:51;;;;;;;17.75;9.05;;;;;;;;;;6239168;28;20437;-69
2024/01/23 08:57:52;;;;;;;15.85;9.95;;;;;;;;;;6238531;28;20061;-69
2024/01/23 09:00:52;;;;;;;16.05;9.73;;;;;;;;;;6238748;28;20044;-69
2024/01/23 09:03:53;;;;;;;16.50;9.15;;;;;;;;;;6237369;28;20050;-69
2024/01/23 09:06:53;;;;;;;16.40;9.15;;;;;;;;;;6238806;28;20053;-69
2024/01/23 09:09:54;;;;;;;17.60;10.00;;;;;;;;;;6239324;28;20104;-68
2024/01/23 09:12:55;;;;;;;16.98;9.65;;;;;;;;;;6235708;28;20049;-69
2024/01/23 09:15:56;;;;;;;20.60;10.70;;;;;;;;;;6239213;28;20099;-69
2024/01/23 09:18:56;;;;;;;21.83;11.85;;;;;;;;;;6239557;28;20050;-69
2024/01/23 09:21:57;;;;;;;20.88;11.82;;;;;;;;;;6238216;28;20053;-69
2024/01/23 09:25:17;;;;;;;19.92;10.27;;;;;;;;;;6237152;28;20041;-69
2024/01/23 09:28:20;;;;;;;17.58;9.38;;;;;;;;;;6239267;28;20084;-68
2024/01/23 09:31:21;;;;;;;17.17;9.18;;;;;;;;;;6239942;28;20233;-69
2024/01/23 09:34:22;;;;;;;16.97;9.37;;;;;;;;;;6239349;28;20060;-69
2024/01/23 09:37:22;;;;;;;15.02;8.68;;;;;;;;;;6237440;28;20046;-69
2024/01/23 09:40:23;;;;;;;17.02;8.68;;;;;;;;;;6238044;28;20120;-69
2024/01/23 09:43:26;;;;;;;16.70;9.18;;;;;;;;;;6237673;28;20050;-69
2024/01/23 09:46:27;;;;;;;14.60;8.85;;;;;;;;;;6237648;28;20046;-70
2024/01/23 09:49:28;;;;;;;15.50;9.13;;;;;;;;;;6238918;28;20481;-69
2024/01/23 09:52:31;;;;;;;16.95;8.98;;;;;;;;;;6236498;28;20512;-68
2024/01/23 09:55:32;;;;;;;15.70;8.40;;;;;;;;;;6234522;28;20568;-69
2024/01/23 09:58:34;;;;;;;17.42;9.02;;;;;;;;;;6237212;28;20409;-69
2024/01/23 10:01:35;;;;;;;15.05;8.20;;;;;;;;;;6238967;28;20045;-70
2024/01/23 10:04:36;;;;;;;16.70;9.63;;;;;;;;;;6237515;28;20099;-69
2024/01/23 10:07:38;;;;;;;18.25;9.55;;;;;;;;;;6237955;28;20046;-69
2024/01/23 10:10:39;;;;;;;17.13;10.05;;;;;;;;;;6238183;28;20049;-69
2024/01/23 10:14:01;;;;;;;18.00;9.75;;;;;;;;;;6234480;28;20077;-69
2024/01/23 10:17:01;;;;;;;19.88;9.80;;;;;;;;;;6236912;28;20052;-69
2024/01/23 10:20:02;;;;;;;19.27;10.07;;;;;;;;;;6239002;28;20054;-69
2024/01/23 10:23:04;;;;;;;19.75;10.18;;;;;;;;;;6223617;28;20045;-69
2024/01/23 10:26:07;;;;;;;17.33;9.93;;;;;;;;;;6239376;28;20057;-70
2024/01/23 10:29:08;;;;;;;17.33;9.85;;;;;;;;;;6242202;28;20484;-69
2024/01/23 10:32:08;;;;;;;19.55;10.30;;;;;;;;;;6243287;28;20052;-69
2024/01/23 10:35:12;;;;;;;20.73;9.75;;;;;;;;;;6241962;28;20049;-70
2024/01/23 10:38:14;;;;;;;20.52;11.93;;;;;;;;;;6242342;28;20371;-70
2024/01/23 10:41:17;;;;;;;18.05;10.55;;;;;;;;;;6242449;28;20046;-70
2024/01/23 10:44:22;;;;;;;20.80;10.48;;;;;;;;;;6241633;28;20544;-69
2024/01/23 10:47:23;;;;;;;20.75;10.35;;;;;;;;;;6237698;28;20041;-69
2024/01/23 10:50:24;;;;;;;18.15;9.93;;;;;;;;;;6240651;28;20043;-69
2024/01/23 10:53:34;;;;;;;19.02;9.60;;;;;;;;;;6241496;28;20499;-69
2024/01/23 10:56:56;;;;;;;19.05;10.15;;;;;;;;;;6240580;28;20128;-70
2024/01/23 10:59:59;;;;;;;17.42;10.18;;;;;;;;;;6242407;28;20037;-69
2024/01/23 11:03:05;;;;;;;15.90;9.45;;;;;;;;;;6242200;28;20595;-69
2024/01/23 11:06:16;;;;;;;17.98;9.85;;;;;;;;;;6242346;28;20053;-69
2024/01/23 11:09:22;;;;;;;19.27;10.43;;;;;;;;;;6241179;28;20056;-69
2024/01/23 11:12:32;;;;;;;20.13;10.20;;;;;;;;;;6242215;28;20053;-69
2024/01/23 11:15:33;;;;;;;18.38;10.15;;;;;;;;;;6242262;28;20049;-69
2024/01/23 11:18:35;;;;;;;21.58;10.82;;;;;;;;;;6238786;28;20053;-69
2024/01/23 11:21:37;;;;;;;18.85;10.88;;;;;;;;;;6239612;28;20449;-69
2024/01/23 11:24:41;;;;;;;;;;;;;;;;;;6241406;28;20503;-69
2024/01/23 11:27:47;;;;;;;19.88;9.43;;;;;;;;;;6241031;28;19921;-69
2024/01/23 11:31:14;;;;;;;18.70;9.55;;;;;;;;;;6240573;28;20065;-69
2024/01/23 11:34:23;;;;;;;19.27;9.45;;;;;;;;;;6230728;28;20069;-69
2024/01/23 11:38:02;;;;;;;17.83;9.70;;;;;;;;;;6240789;28;20049;-69
2024/01/23 11:41:12;;;;;;;17.27;9.13;;;;;;;;;;6137104;28;20110;-70
2024/01/23 11:44:12;;;;;;;19.80;10.30;;;;;;;;;;6229839;28;20057;-68
2024/01/23 11:47:14;;;;;;;19.27;10.20;;;;;;;;;;6241820;28;20757;-69
2024/01/23 11:50:15;;;;;;;18.88;9.88;;;;;;;;;;6241042;28;20049;-67
2024/01/23 11:53:19;;;;;;;20.33;11.20;;;;;;;;;;6236706;28;20767;-68
2024/01/23 11:56:20;;;;;;;19.80;11.70;;;;;;;;;;6232854;28;20551;-69
2024/01/23 11:59:21;;;;;;;19.75;10.05;;;;;;;;;;6232623;28;20061;-69
2024/01/23 12:02:23;;;;;;;19.10;10.23;;;;;;;;;;6233154;28;20049;-69
2024/01/23 12:05:23;;;;;;;17.67;9.82;;;;;;;;;;6232245;28;20072;-69
2024/01/23 12:08:25;;;;;;;16.45;9.68;;;;;;;;;;6246566;28;20053;-69
2024/01/23 12:11:29;;;;;;;20.90;10.80;;;;;;;;;;6231359;28;20099;-69
2024/01/23 12:14:30;;;;;;;18.90;10.15;;;;;;;;;;6231009;28;20099;-69
2024/01/23 12:17:35;;;;;;;16.70;9.60;;;;;;;;;;6232077;28;20046;-68
2024/01/23 12:20:36;;;;;;;18.48;9.73;;;;;;;;;;6230551;28;20332;-69
2024/01/23 12:23:37;;;;;;;18.92;10.05;;;;;;;;;;6231296;28;20524;-69
2024/01/23 12:26:37;;;;;;;16.80;9.35;;;;;;;;;;6231514;28;20050;-69
2024/01/23 12:29:39;;;;;;;19.00;10.43;;;;;;;;;;6231323;28;20045;-69
2024/01/23 12:32:40;;;;;;;17.93;9.57;;;;;;;;;;6234758;28;20673;-69
2024/01/23 12:35:41;;;;;;;16.83;9.90;;;;;;;;;;6230982;28;20045;-69
2024/01/23 12:38:44;;;;;;;;;;;;;;;;;;6230988;28;20168;-69
2024/01/23 12:41:45;;;;;;;17.83;9.15;;;;;;;;;;6227704;28;19929;-69
2024/01/23 12:44:45;;;;;;;19.77;10.43;;;;;;;;;;6228253;28;20062;-69
2024/01/23 12:47:47;;;;;;;16.25;9.70;;;;;;;;;;6227167;28;20045;-69
2024/01/23 12:50:47;;;;;;;16.33;9.80;;;;;;;;;;6226000;28;20148;-69
2024/01/23 12:53:48;;;;;;;17.35;10.10;;;;;;;;;;6228071;28;20077;-69
2024/01/23 12:56:49;;;;;;;19.10;9.80;;;;;;;;;;6235798;28;20507;-69
2024/01/23 12:59:50;;;;;;;21.30;11.27;;;;;;;;;;6226591;28;20049;-69
2024/01/23 13:02:52;;;;;;;18.23;10.00;;;;;;;;;;6228986;28;20636;-69
2024/01/23 13:05:52;;;;;;;19.58;9.73;;;;;;;;;;6229505;28;20056;-69
2024/01/23 13:08:53;;;;;;;15.98;9.23;;;;;;;;;;6227429;28;20809;-69
2024/01/23 13:11:54;;;;;;;21.05;10.02;;;;;;;;;;6229031;28;20064;-69
2024/01/23 13:14:54;;;;;;;20.52;9.57;;;;;;;;;;6227054;28;20057;-69
2024/01/23 13:17:56;;;;;;;16.52;9.02;;;;;;;;;;6228906;28;20144;-69
2024/01/23 13:20:56;;;;;;;17.27;9.38;;;;;;;;;;6228556;28;20158;-69
2024/01/23 13:23:57;;;;;;;18.38;9.13;;;;;;;;;;6227302;28;20041;-69
2024/01/23 13:27:03;;;;;;;16.15;9.45;;;;;;;;;;6227819;28;20060;-69
2024/01/23 13:30:06;;;;;;;17.88;9.90;;;;;;;;;;6228251;28;20103;-69
2024/01/23 13:33:07;;;;;;;14.95;8.20;;;;;;;;;;6226675;28;20112;-69
2024/01/23 13:36:08;;;;;;;14.85;8.35;;;;;;;;;;6224213;28;20076;-69
2024/01/23 13:39:13;;;;;;;15.38;9.15;;;;;;;;;;6224616;28;20059;-69
2024/01/23 13:42:14;;;;;;;14.75;8.27;;;;;;;;;;6227988;28;20409;-69
2024/01/23 13:45:14;;;;;;;14.95;8.70;;;;;;;;;;6227518;28;20049;-69
2024/01/23 13:48:15;;;;;;;17.77;9.30;;;;;;;;;;6228194;28;20053;-69
2024/01/23 13:51:16;;;;;;;13.98;8.43;;;;;;;;;;6225624;28;20543;-70
2024/01/23 13:54:17;;;;;;;17.20;9.63;;;;;;;;;;6227107;28;20405;-70
2024/01/23 13:57:17;;;;;;;17.85;9.70;;;;;;;;;;6227035;28;20045;-69
2024/01/23 14:00:21;;;;;;;16.90;9.35;;;;;;;;;;6228560;28;20065;-70
2024/01/23 14:03:22;;;;;;;17.95;9.82;;;;;;;;;;6236323;28;20053;-70
2024/01/23 14:06:22;;;;;;;17.42;9.18;;;;;;;;;;6234875;28;20777;-70
2024/01/23 14:09:30;;;;;;;16.20;9.30;;;;;;;;;;6231134;28;20052;-71
2024/01/23 14:12:31;;;;;;;17.45;9.38;;;;;;;;;;6232580;28;20041;-70
2024/01/23 14:15:32;;;;;;;19.98;10.55;;;;;;;;;;6230874;28;20060;-70
2024/01/23 14:18:33;;;;;;;15.38;9.23;;;;;;;;;;6233150;28;20404;-70
2024/01/23 14:21:34;;;;;;;16.63;8.30;;;;;;;;;;6233655;28;20164;-71
2024/01/23 14:24:36;;;;;;;19.00;9.32;;;;;;;;;;6232268;28;20061;-70
2024/01/23 14:27:39;;;;;;;20.35;10.90;;;;;;;;;;6231188;28;20056;-70
2024/01/23 14:30:40;;;;;;;21.52;11.07;;;;;;;;;;6227802;28;20049;-70
2024/01/23 14:33:41;;;;;;;30.48;14.23;;;;;;;;;;6229879;28;20048;-70
2024/01/23 14:36:42;;;;;;;24.05;12.18;;;;;;;;;;6226381;28;20042;-70
2024/01/23 14:39:43;;;;;;;24.95;12.93;;;;;;;;;;6230511;28;20051;-70
2024/01/23 14:42:44;;;;;;;20.80;11.48;;;;;;;;;;6233982;28;20600;-70
2024/01/23 14:45:45;;;;;;;22.43;10.90;;;;;;;;;;6230575;28;20508;-70
2024/01/23 14:48:46;;;;;;;19.92;10.60;;;;;;;;;;6230600;28;20352;-70
2024/01/23 14:51:47;;;;;;;19.77;10.25;;;;;;;;;;6231438;28;20067;-71
2024/01/23 14:54:48;;;;;;;19.77;10.53;;;;;;;;;;6231951;28;20045;-70
2024/01/23 14:57:51;;;;;;;17.23;9.45;;;;;;;;;;6229680;28;20497;-70
2024/01/23 15:00:52;;;;;;;18.38;9.68;;;;;;;;;;6230365;28;20045;-70
2024/01/23 15:03:53;;;;;;;16.35;10.02;;;;;;;;;;6230926;28;20053;-70
2024/01/23 15:06:54;;;;;;;18.15;9.90;;;;;;;;;;6230668;28;20065;-70
2024/01/23 15:09:55;;;;;;;19.33;10.32;;;;;;;;;;6229452;28;20041;-70
2024/01/23 15:12:56;;;;;;;18.07;11.27;;;;;;;;;;6230181;28;20050;-70
2024/01/23 15:15:57;;;;;;;18.48;10.25;;;;;;;;;;6230596;28;20091;-70
2024/01/23 15:18:58;;;;;;;18.87;10.23;;;;;;;;;;6228604;28;20049;-70
2024/01/23 15:21:59;;;;;;;18.40;10.25;;;;;;;;;;6233550;28;20290;-70
2024/01/23 15:25:00;;;;;;;19.40;9.93;;;;;;;;;;6230620;28;20057;-70
2024/01/23 15:28:01;;;;;;;19.48;10.50;;;;;;;;;;6227136;28;20058;-70
2024/01/23 15:31:02;;;;;;;20.13;10.52;;;;;;;;;;6229468;28;20053;-70
2024/01/23 15:34:02;;;;;;;18.75;10.40;;;;;;;;;;6231673;28;20650;-70
2024/01/23 15:37:04;;;;;;;18.48;10.15;;;;;;;;;;6230485;28;20122;-69
2024/01/23 15:40:06;;;;;;;19.48;10.40;;;;;;;;;;6229076;28;20437;-70
2024/01/23 15:43:07;;;;;;;19.25;11.02;;;;;;;;;;6230966;28;20771;-69
2024/01/23 15:46:08;;;;;;;24.05;11.43;;;;;;;;;;6228483;28;20045;-71
2024/01/23 15:49:09;;;;;;;20.17;11.27;;;;;;;;;;6229772;28;20046;-70
2024/01/23 15:52:09;;;;;;;18.77;10.23;;;;;;;;;;6230975;28;21205;-71
2024/01/23 15:55:11;;;;;;;19.23;10.15;;;;;;;;;;6235415;28;20556;-71
2024/01/23 15:58:14;;;;;;;19.80;10.75;;;;;;;;;;6228092;28;20464;-70
2024/01/23 16:01:15;;;;;;;17.60;10.45;;;;;;;;;;6228940;28;20057;-69
2024/01/23 16:04:17;;;;;;;16.70;9.77;;;;;;;;;;6229653;28;20426;-69
2024/01/23 16:07:18;;;;;;;21.90;10.95;;;;;;;;;;6228486;28;20535;-69
2024/01/23 16:10:19;;;;;;;20.67;10.95;;;;;;;;;;6229841;28;20053;-70
2024/01/23 16:13:20;;;;;;;18.63;10.43;;;;;;;;;;6231895;28;20046;-69
2024/01/23 16:16:20;;;;;;;17.17;9.90;;;;;;;;;;6229187;28;20053;-68
2024/01/23 16:19:22;;;;;;;16.88;10.00;;;;;;;;;;6227119;28;20053;-69
2024/01/23 16:22:23;;;;;;;18.52;10.65;;;;;;;;;;6231072;28;20046;-67
2024/01/23 16:25:24;;;;;;;18.17;9.95;;;;;;;;;;6227753;28;20100;-69
2024/01/23 16:28:24;;;;;;;19.35;10.35;;;;;;;;;;6227509;28;20497;-68
2024/01/23 16:31:25;;;;;;;21.05;10.90;;;;;;;;;;6228075;28;20045;-68
2024/01/23 16:34:25;;;;;;;19.98;10.80;;;;;;;;;;6230237;28;20056;-68
2024/01/23 16:37:28;;;;;;;18.48;9.30;;;;;;;;;;6226938;28;20064;-68
2024/01/23 16:40:29;;;;;;;19.02;10.30;;;;;;;;;;6228568;28;20049;-68
2024/01/23 16:43:30;;;;;;;16.63;9.00;;;;;;;;;;6230656;28;20057;-68
2024/01/23 16:46:31;;;;;;;17.90;9.60;;;;;;;;;;6228117;28;20495;-65
2024/01/23 16:49:32;;;;;;;19.55;9.98;;;;;;;;;;6226856;28;20053;-71
2024/01/23 16:52:33;;;;;;;18.52;9.60;;;;;;;;;;6231136;28;20053;-68
2024/01/23 16:55:34;;;;;;;20.48;10.85;;;;;;;;;;6230332;28;20131;-69
2024/01/23 16:58:34;;;;;;;17.55;10.88;;;;;;;;;;6233326;28;20048;-69
2024/01/23 17:01:35;;;;;;;17.67;9.43;;;;;;;;;;6230693;28;20041;-68
2024/01/23 17:04:36;;;;;;;16.05;9.30;;;;;;;;;;6230172;28;21027;-68
2024/01/23 17:07:40;;;;;;;18.50;10.10;;;;;;;;;;6229525;28;20053;-68
2024/01/23 17:10:40;;;;;;;17.70;9.73;;;;;;;;;;6227179;28;20080;-67
2024/01/23 17:13:41;;;;;;;14.75;8.50;;;;;;;;;;6229784;28;20123;-68
2024/01/23 17:16:43;;;;;;;16.58;9.35;;;;;;;;;;6228526;28;20054;-69
2024/01/23 17:19:44;;;;;;;19.23;9.65;;;;;;;;;;6229292;28;20056;-70
2024/01/23 17:22:45;;;;;;;15.95;9.25;;;;;;;;;;6230873;28;20045;-68
2024/01/23 17:25:46;;;;;;;13.70;8.02;;;;;;;;;;6229723;28;20431;-72
2024/01/23 17:28:46;;;;;;;17.38;8.43;;;;;;;;;;6227724;28;20068;-71
2024/01/23 17:31:48;;;;;;;16.73;8.90;;;;;;;;;;6229765;28;20092;-74
2024/01/23 17:34:49;;;;;;;16.63;9.35;;;;;;;;;;6233550;28;20499;-70
2024/01/23 17:37:50;;;;;;;17.23;9.45;;;;;;;;;;6250006;28;20045;-68
2024/01/23 17:40:51;;;;;;;16.27;9.45;;;;;;;;;;6236814;28;20941;-68
2024/01/23 17:43:52;;;;;;;16.10;7.55;;;;;;;;;;6237835;28;20127;-67
2024/01/23 17:46:53;;;;;;;15.35;8.98;;;;;;;;;;6235882;28;20053;-67